createdAt,value
2023-05-11T00:00:48.312Z,34.70
2023-05-11T00:02:51.321Z,34.90
2023-05-11T00:04:55.307Z,35.00
2023-05-11T00:07:00.952Z,35.00
2023-05-11T00:09:03.899Z,35.20
2023-05-11T00:11:16.729Z,35.00
2023-05-11T00:13:20.230Z,35.50
2023-05-11T00:15:23.397Z,35.20
2023-05-11T00:17:30.672Z,35.20
2023-05-11T00:19:34.946Z,35.20
2023-05-11T00:21:38.566Z,35.00
2023-05-11T00:23:41.663Z,35.00
2023-05-11T00:25:45.733Z,35.00
2023-05-11T00:27:51.864Z,35.00
2023-05-11T00:29:57.217Z,35.00
2023-05-11T00:32:02.837Z,35.70
2023-05-11T00:34:07.608Z,34.90
2023-05-11T00:36:10.480Z,35.00
2023-05-11T00:38:16.123Z,34.90
2023-05-11T00:40:19.226Z,35.00
2023-05-11T00:42:22.324Z,34.80
2023-05-11T00:44:26.678Z,34.90
2023-05-11T00:46:29.797Z,35.10
2023-05-11T00:48:32.797Z,35.00
2023-05-11T00:50:38.423Z,35.10
2023-05-11T00:52:42.755Z,35.10
2023-05-11T00:54:46.768Z,34.90
2023-05-11T00:56:49.699Z,34.50
2023-05-11T00:58:53.576Z,34.60
2023-05-11T01:00:57.899Z,34.50
2023-05-11T01:03:03.995Z,34.70
2023-05-11T01:05:07.880Z,34.90
2023-05-11T01:07:17.217Z,34.70
2023-05-11T01:09:30.393Z,35.10
2023-05-11T01:11:39.864Z,35.30
2023-05-11T01:13:47.207Z,35.40
2023-05-11T01:15:53.010Z,35.30
2023-05-11T01:18:12.803Z,35.50
2023-05-11T01:20:21.924Z,35.90
2023-05-11T01:22:38.977Z,35.50
2023-05-11T01:25:08.750Z,36.00
2023-05-11T01:27:37.933Z,36.40
2023-05-11T01:29:51.200Z,36.00
2023-05-11T01:31:57.346Z,35.90
2023-05-11T01:34:05.838Z,35.90
2023-05-11T01:36:12.634Z,36.20
2023-05-11T01:38:17.582Z,36.40
2023-05-11T01:40:25.660Z,36.30
2023-05-11T01:42:33.554Z,36.60
2023-05-11T01:44:38.232Z,36.70
2023-05-11T01:46:41.147Z,36.90
2023-05-11T01:48:51.863Z,37.00
2023-05-11T01:51:01.540Z,37.60
2023-05-11T01:53:05.775Z,37.70
2023-05-11T01:55:10.843Z,37.90
2023-05-11T01:57:17.109Z,38.10
2023-05-11T01:59:20.602Z,38.40
2023-05-11T02:01:24.494Z,38.50
2023-05-11T02:03:29.387Z,38.60
2023-05-11T02:05:35.671Z,39.30
2023-05-11T02:07:44.815Z,39.30
2023-05-11T02:09:50.849Z,39.10
2023-05-11T02:11:57.763Z,39.30
2023-05-11T02:14:01.896Z,39.30
2023-05-11T02:16:07.034Z,39.30
2023-05-11T02:18:13.701Z,39.30
2023-05-11T02:20:18.606Z,40.00
2023-05-11T02:22:27.348Z,40.00
2023-05-11T02:24:32.080Z,39.40
2023-05-11T02:26:37.947Z,39.30
2023-05-11T02:28:40.868Z,39.30
2023-05-11T02:30:48.409Z,39.30
2023-05-11T02:32:53.837Z,39.30
2023-05-11T02:35:04.358Z,39.30
2023-05-11T02:37:11.091Z,39.30
2023-05-11T02:39:21.735Z,39.20
2023-05-11T02:41:29.110Z,39.30
2023-05-11T02:43:36.555Z,39.30
2023-05-11T02:45:43.573Z,39.80
2023-05-11T02:47:53.456Z,39.10
2023-05-11T02:50:07.026Z,39.10
2023-05-11T02:52:14.368Z,39.20
2023-05-11T02:54:27.429Z,39.20
2023-05-11T02:56:31.407Z,39.80
2023-05-11T02:58:35.314Z,39.70
2023-05-11T03:00:52.652Z,39.90
2023-05-11T03:02:57.597Z,40.20
2023-05-11T03:05:00.660Z,40.20
2023-05-11T03:07:04.882Z,40.40
2023-05-11T03:09:10.129Z,40.70
2023-05-11T03:11:22.153Z,41.00
2023-05-11T03:13:26.008Z,41.30
2023-05-11T03:15:31.230Z,41.20
2023-05-11T03:17:36.575Z,41.30
2023-05-11T03:19:43.567Z,41.50
2023-05-11T03:21:51.022Z,41.80
2023-05-11T03:23:54.924Z,41.60
2023-05-11T03:26:01.191Z,41.40
2023-05-11T03:28:22.080Z,41.60
2023-05-11T03:30:38.157Z,41.60
2023-05-11T03:32:41.584Z,41.60
2023-05-11T03:34:44.617Z,41.40
2023-05-11T03:36:51.527Z,41.50
2023-05-11T03:38:57.583Z,41.50
2023-05-11T03:41:03.846Z,41.50
2023-05-11T03:43:13.044Z,41.50
2023-05-11T03:45:19.736Z,41.80
2023-05-11T03:47:23.663Z,41.50
2023-05-11T03:49:27.926Z,41.20
2023-05-11T03:51:33.064Z,40.90
2023-05-11T03:53:39.407Z,40.60
2023-05-11T03:55:42.467Z,40.30
2023-05-11T03:57:46.286Z,39.90
2023-05-11T03:59:50.607Z,39.50
2023-05-11T04:01:56.162Z,39.40
2023-05-11T04:03:59.218Z,39.40
2023-05-11T04:06:02.190Z,39.30
2023-05-11T04:08:08.235Z,39.40
2023-05-11T04:10:11.300Z,39.40
2023-05-11T04:12:14.578Z,39.70
2023-05-11T04:14:18.506Z,39.80
2023-05-11T04:16:23.092Z,39.90
2023-05-11T04:18:28.127Z,40.00
2023-05-11T04:20:31.119Z,39.80
2023-05-11T04:22:37.038Z,39.90
2023-05-11T04:24:40.337Z,40.10
2023-05-11T04:26:45.355Z,40.20
2023-05-11T04:28:48.219Z,40.40
2023-05-11T04:30:56.212Z,40.70
2023-05-11T04:33:00.683Z,41.10
2023-05-11T04:35:03.915Z,41.00
2023-05-11T04:37:13.071Z,41.00
2023-05-11T04:39:19.133Z,40.90
2023-05-11T04:41:24.440Z,41.00
2023-05-11T04:43:30.049Z,41.20
2023-05-11T04:45:36.271Z,41.20
2023-05-11T04:47:48.063Z,41.10
2023-05-11T04:49:52.432Z,41.10
2023-05-11T04:51:58.076Z,40.90
2023-05-11T04:54:01.800Z,40.80
2023-05-11T04:56:05.782Z,40.90
2023-05-11T04:58:10.638Z,41.10
2023-05-11T05:00:15.666Z,41.10
2023-05-11T05:02:24.420Z,41.30
2023-05-11T05:04:28.577Z,41.20
2023-05-11T05:06:36.752Z,41.30
2023-05-11T05:08:39.670Z,41.40
2023-05-11T05:10:42.578Z,41.20
2023-05-11T05:12:46.680Z,41.20
2023-05-11T05:14:49.813Z,41.20
2023-05-11T05:16:54.406Z,41.40
2023-05-11T05:18:57.591Z,41.40
2023-05-11T05:21:00.994Z,41.30
2023-05-11T05:23:05.604Z,41.10
2023-05-11T05:25:09.863Z,41.20
2023-05-11T05:27:12.862Z,41.10
2023-05-11T05:29:17.755Z,41.00
2023-05-11T05:31:23.012Z,41.10
2023-05-11T05:33:27.992Z,41.10
2023-05-11T05:35:31.811Z,42.00
2023-05-11T05:37:38.294Z,41.50
2023-05-11T05:39:43.263Z,41.70
2023-05-11T05:41:46.348Z,41.70
2023-05-11T05:43:52.724Z,41.70
2023-05-11T05:45:55.697Z,41.80
2023-05-11T05:48:00.418Z,41.60
2023-05-11T05:50:03.462Z,41.60
2023-05-11T05:52:06.591Z,41.90
2023-05-11T05:54:13.681Z,42.20
2023-05-11T05:56:18.040Z,42.30
2023-05-11T05:58:25.518Z,42.50
2023-05-11T06:00:28.527Z,43.10
2023-05-11T06:02:41.259Z,42.90
2023-05-11T06:04:49.797Z,43.10
2023-05-11T06:06:57.933Z,43.20
2023-05-11T06:09:01.127Z,43.10
2023-05-11T06:11:04.100Z,42.70
2023-05-11T06:13:10.833Z,42.20
2023-05-11T06:15:16.259Z,42.20
2023-05-11T06:17:23.660Z,41.70
2023-05-11T06:19:26.860Z,41.40
2023-05-11T06:21:31.611Z,41.50
2023-05-11T06:23:38.404Z,41.30
2023-05-11T06:25:42.329Z,41.20
2023-05-11T06:27:45.624Z,41.30
2023-05-11T06:29:53.087Z,41.20
2023-05-11T06:31:57.435Z,41.20
2023-05-11T06:34:00.439Z,41.20
2023-05-11T06:36:07.929Z,41.00
2023-05-11T06:38:15.231Z,40.70
2023-05-11T06:40:18.397Z,40.70
2023-05-11T06:42:23.426Z,40.90
2023-05-11T06:44:26.416Z,41.30
2023-05-11T06:46:34.476Z,41.40
2023-05-11T06:48:37.422Z,41.50
2023-05-11T06:50:40.716Z,41.50
2023-05-11T06:52:43.908Z,41.50
2023-05-11T06:54:46.814Z,41.60
2023-05-11T06:56:49.681Z,41.70
2023-05-11T06:58:55.252Z,41.20
2023-05-11T07:00:59.672Z,40.80
2023-05-11T07:03:04.355Z,40.70
2023-05-11T07:05:08.014Z,40.90
2023-05-11T07:07:12.141Z,40.80
2023-05-11T07:09:15.466Z,40.80
2023-05-11T07:11:19.074Z,40.90
2023-05-11T07:13:26.838Z,40.70
2023-05-11T07:15:29.717Z,40.50
2023-05-11T07:17:32.972Z,40.00
2023-05-11T07:19:43.059Z,39.90
2023-05-11T07:21:46.139Z,39.50
2023-05-11T07:23:49.220Z,39.40
2023-05-11T07:25:57.346Z,39.20
2023-05-11T07:28:00.368Z,38.60
2023-05-11T07:30:04.084Z,38.40
2023-05-11T07:32:09.389Z,38.20
2023-05-11T07:34:12.307Z,38.00
2023-05-11T07:36:16.582Z,37.80
2023-05-11T07:38:19.477Z,37.50
2023-05-11T07:40:23.721Z,37.30
2023-05-11T07:42:26.880Z,37.50
2023-05-11T07:44:33.328Z,37.50
2023-05-11T07:46:36.315Z,37.70
2023-05-11T07:48:40.742Z,37.40
2023-05-11T07:50:43.804Z,37.50
2023-05-11T07:52:48.583Z,37.20
2023-05-11T07:54:52.242Z,37.30
2023-05-11T07:56:55.274Z,37.30
2023-05-11T07:58:58.182Z,37.10
2023-05-11T08:01:01.095Z,36.90
2023-05-11T08:03:09.578Z,37.00
2023-05-11T08:05:12.719Z,37.30
2023-05-11T08:07:18.687Z,37.50
2023-05-11T08:09:23.348Z,37.40
2023-05-11T08:11:28.837Z,37.10
2023-05-11T08:13:32.998Z,37.20
2023-05-11T08:15:35.883Z,36.90
2023-05-11T08:17:39.391Z,36.50
2023-05-11T08:19:42.534Z,36.10
2023-05-11T08:21:46.329Z,36.00
2023-05-11T08:23:49.257Z,35.90
2023-05-11T08:25:57.302Z,35.80
2023-05-11T08:28:02.124Z,35.40
2023-05-11T08:30:05.837Z,34.60
2023-05-11T08:32:08.801Z,34.40
2023-05-11T08:34:19.145Z,34.70
2023-05-11T08:36:23.007Z,34.90
2023-05-11T08:38:33.083Z,34.80
2023-05-11T08:40:40.585Z,34.60
2023-05-11T08:42:47.576Z,34.20
2023-05-11T08:44:56.421Z,33.10
2023-05-11T08:47:20.498Z,32.80
2023-05-11T08:49:26.453Z,32.80
2023-05-11T08:51:32.797Z,32.80
2023-05-11T08:53:35.883Z,32.80
2023-05-11T08:55:41.738Z,32.80
2023-05-11T08:57:51.190Z,32.80
2023-05-11T08:59:55.400Z,32.80
2023-05-11T09:02:01.922Z,32.80
2023-05-11T09:04:06.880Z,32.80
2023-05-11T09:06:14.307Z,32.90
2023-05-11T09:08:19.703Z,32.90
2023-05-11T09:10:22.784Z,33.00
2023-05-11T09:12:29.014Z,33.00
2023-05-11T09:14:33.655Z,33.10
2023-05-11T09:16:37.650Z,33.20
2023-05-11T09:18:48.183Z,33.30
2023-05-11T09:20:53.345Z,33.10
2023-05-11T09:22:56.719Z,33.50
2023-05-11T09:25:01.664Z,33.00
2023-05-11T09:27:08.913Z,32.50
2023-05-11T09:29:14.337Z,31.90
2023-05-11T09:31:46.325Z,30.90
2023-05-11T09:34:08.995Z,30.90
2023-05-11T09:36:24.685Z,30.90
2023-05-11T09:38:28.735Z,30.20
2023-05-11T09:40:34.706Z,30.60
2023-05-11T09:42:38.090Z,30.70
2023-05-11T09:44:41.668Z,30.80
2023-05-11T09:46:48.975Z,30.40
2023-05-11T09:49:00.782Z,30.00
2023-05-11T09:51:05.756Z,30.00
2023-05-11T09:53:08.684Z,29.60
2023-05-11T09:55:14.524Z,29.90
2023-05-11T09:57:28.972Z,29.60
2023-05-11T09:59:40.437Z,29.20
2023-05-11T10:01:48.539Z,29.20
2023-05-11T10:03:58.181Z,29.30
2023-05-11T10:06:09.201Z,28.00
2023-05-11T10:08:12.197Z,27.20
2023-05-11T10:10:16.412Z,27.50
2023-05-11T10:12:21.306Z,27.60
2023-05-11T10:14:29.307Z,27.40
2023-05-11T10:16:36.590Z,26.80
2023-05-11T10:18:44.419Z,26.30
2023-05-11T10:20:50.645Z,26.30
2023-05-11T10:22:56.385Z,26.50
2023-05-11T10:25:00.684Z,26.10
2023-05-11T10:27:03.948Z,26.40
2023-05-11T10:29:06.889Z,26.40
2023-05-11T10:31:13.278Z,26.60
2023-05-11T10:33:17.861Z,26.30
2023-05-11T10:35:23.672Z,26.30
2023-05-11T10:37:27.490Z,26.20
2023-05-11T10:39:40.184Z,26.00
2023-05-11T10:42:00.228Z,26.20
2023-05-11T10:44:32.245Z,26.00
2023-05-11T10:46:54.234Z,26.30
2023-05-11T10:49:37.591Z,26.40
2023-05-11T10:51:56.317Z,26.30
2023-05-11T10:54:09.283Z,26.20
2023-05-11T10:56:30.340Z,26.30
2023-05-11T10:58:45.594Z,26.40
2023-05-11T11:01:35.399Z,26.50
2023-05-11T11:03:40.677Z,26.60
2023-05-11T11:05:45.284Z,26.60
2023-05-11T11:08:00.233Z,26.60
2023-05-11T11:10:08.995Z,26.40
2023-05-11T11:12:13.762Z,26.70
2023-05-11T11:14:17.902Z,27.00
2023-05-11T11:16:23.518Z,27.20
2023-05-11T11:18:27.610Z,27.20
2023-05-11T11:20:50.344Z,27.10
2023-05-11T11:22:53.352Z,27.10
2023-05-11T11:25:00.263Z,27.10
2023-05-11T11:27:05.905Z,27.00
2023-05-11T11:29:10.014Z,27.20
2023-05-11T11:31:28.534Z,27.20
2023-05-11T11:33:35.554Z,27.30
2023-05-11T11:35:50.550Z,27.30
2023-05-11T11:38:03.228Z,27.70
2023-05-11T11:40:16.636Z,27.80
2023-05-11T11:42:33.125Z,27.80
2023-05-11T11:44:36.675Z,27.70
2023-05-11T11:46:39.752Z,27.80
2023-05-11T11:48:43.028Z,27.90
2023-05-11T11:50:48.349Z,28.20
2023-05-11T11:52:51.961Z,28.50
2023-05-11T11:54:56.477Z,28.50
2023-05-11T11:57:01.228Z,28.60
2023-05-11T11:59:05.325Z,28.70
2023-05-11T12:01:13.881Z,29.10
2023-05-11T12:03:24.913Z,29.70
2023-05-11T12:05:29.283Z,30.30
2023-05-11T12:07:35.089Z,30.00
2023-05-11T12:09:42.036Z,29.70
2023-05-11T12:11:47.567Z,29.40
2023-05-11T12:13:52.327Z,29.60
2023-05-11T12:16:09.784Z,29.80
2023-05-11T12:18:22.576Z,28.90
2023-05-11T12:20:28.387Z,29.20
2023-05-11T12:22:31.222Z,28.90
2023-05-11T12:24:34.842Z,29.20
2023-05-11T12:26:37.875Z,29.10
2023-05-11T12:28:40.802Z,28.90
2023-05-11T12:30:59.921Z,29.00
2023-05-11T12:33:05.813Z,29.10
2023-05-11T12:35:09.766Z,28.90
2023-05-11T12:37:15.238Z,28.20
2023-05-11T12:39:20.078Z,28.10
2023-05-11T12:41:24.363Z,27.80
2023-05-11T12:43:28.576Z,27.60
2023-05-11T12:45:31.699Z,27.60
2023-05-11T12:47:36.727Z,27.50
2023-05-11T12:49:39.701Z,27.40
2023-05-11T12:51:51.072Z,26.60
2023-05-11T12:53:55.066Z,26.70
2023-05-11T12:56:00.885Z,26.90
2023-05-11T12:58:13.668Z,26.60
2023-05-11T13:00:19.447Z,26.90
2023-05-11T13:02:25.953Z,27.00
2023-05-11T13:04:33.685Z,26.50
2023-05-11T13:06:36.643Z,26.40
2023-05-11T13:08:41.408Z,26.30
2023-05-11T13:10:44.463Z,26.60
2023-05-11T13:12:51.596Z,26.60
2023-05-11T13:15:08.393Z,27.30
2023-05-11T13:17:11.377Z,26.90
2023-05-11T13:19:17.504Z,27.00
2023-05-11T13:21:22.554Z,26.90
2023-05-11T13:23:26.614Z,26.50
2023-05-11T13:25:32.625Z,26.30
2023-05-11T13:27:35.495Z,26.60
2023-05-11T13:29:40.562Z,26.40
2023-05-11T13:31:44.743Z,26.30
2023-05-11T13:33:50.780Z,26.50
2023-05-11T13:35:56.769Z,26.70
2023-05-11T13:38:01.094Z,26.60
2023-05-11T13:40:11.107Z,26.30
2023-05-11T13:42:15.991Z,25.80
2023-05-11T13:44:18.953Z,25.70
2023-05-11T13:46:25.182Z,25.50
2023-05-11T13:48:28.207Z,25.50
2023-05-11T13:50:36.409Z,24.80
2023-05-11T13:52:41.704Z,24.40
2023-05-11T13:54:47.563Z,24.10
2023-05-11T13:56:51.771Z,23.80
2023-05-11T13:58:54.708Z,23.90
2023-05-11T14:03:07.401Z,24.00
2023-05-11T14:05:12.812Z,23.60
2023-05-11T14:07:18.688Z,23.20
2023-05-11T14:09:24.652Z,23.90
2023-05-11T14:11:28.829Z,24.20
2023-05-11T14:13:31.861Z,24.10
2023-05-11T14:15:36.950Z,23.90
2023-05-11T14:17:42.710Z,23.70
2023-05-11T14:19:47.425Z,24.50
2023-05-11T14:21:53.355Z,23.80
2023-05-11T14:24:10.511Z,23.70
2023-05-11T14:26:23.459Z,23.80
2023-05-11T14:28:30.466Z,23.60
2023-05-11T14:30:34.786Z,22.90
2023-05-11T14:32:37.830Z,22.90
2023-05-11T14:34:42.718Z,22.90
2023-05-11T14:36:45.699Z,23.20
2023-05-11T14:38:48.748Z,23.30
2023-05-11T14:40:53.861Z,23.60
2023-05-11T14:42:56.692Z,23.40
2023-05-11T14:45:02.024Z,23.20
2023-05-11T14:47:07.173Z,23.30
2023-05-11T14:49:10.363Z,24.00
2023-05-11T14:51:15.183Z,24.20
2023-05-11T14:53:18.128Z,24.10
2023-05-11T14:55:21.429Z,23.80
2023-05-11T14:57:27.323Z,23.40
2023-05-11T14:59:30.993Z,22.90
2023-05-11T15:01:40.822Z,22.80
2023-05-11T15:03:44.108Z,22.90
2023-05-11T15:05:47.492Z,21.80
2023-05-11T15:07:51.583Z,21.10
2023-05-11T15:09:54.637Z,21.00
2023-05-11T15:12:01.414Z,21.10
2023-05-11T15:14:04.369Z,20.90
2023-05-11T15:16:07.979Z,20.50
2023-05-11T15:18:14.145Z,20.10
2023-05-11T15:20:19.598Z,20.10
2023-05-11T15:22:23.753Z,20.00
2023-05-11T15:24:29.571Z,20.00
2023-05-11T15:26:32.791Z,20.70
2023-05-11T15:28:47.152Z,20.90
2023-05-11T15:30:50.010Z,21.00
2023-05-11T15:32:54.902Z,21.10
2023-05-11T15:35:00.256Z,20.90
2023-05-11T15:37:03.366Z,21.00
2023-05-11T15:39:09.413Z,20.80
2023-05-11T15:41:14.086Z,21.10
2023-05-11T15:43:17.034Z,21.40
2023-05-11T15:45:20.134Z,21.70
2023-05-11T15:47:23.489Z,21.60
2023-05-11T15:49:26.571Z,21.80
2023-05-11T15:51:30.890Z,21.90
2023-05-11T15:53:33.896Z,22.00
2023-05-11T15:55:37.035Z,21.70
2023-05-11T15:57:39.988Z,21.40
2023-05-11T15:59:42.860Z,21.30
2023-05-11T16:01:46.120Z,21.20
2023-05-11T16:03:49.244Z,21.40
2023-05-11T16:05:52.281Z,21.60
2023-05-11T16:07:56.483Z,21.50
2023-05-11T16:09:59.608Z,21.80
2023-05-11T16:12:05.772Z,21.90
2023-05-11T16:14:08.826Z,22.20
2023-05-11T16:16:14.277Z,22.20
2023-05-11T16:18:19.667Z,22.10
2023-05-11T16:20:23.005Z,22.00
2023-05-11T16:22:30.484Z,22.10
2023-05-11T16:24:35.112Z,22.00
2023-05-11T16:26:38.027Z,22.10
2023-05-11T16:28:42.597Z,22.30
2023-05-11T16:30:45.447Z,22.40
2023-05-11T16:32:48.619Z,22.50
2023-05-11T16:34:51.886Z,22.60
2023-05-11T16:36:56.144Z,22.90
2023-05-11T16:39:01.396Z,22.80
2023-05-11T16:41:05.775Z,22.90
2023-05-11T16:43:08.693Z,22.90
2023-05-11T16:45:13.544Z,22.80
2023-05-11T16:47:21.269Z,22.80
2023-05-11T16:49:26.356Z,22.80
2023-05-11T16:51:30.903Z,23.00
2023-05-11T16:53:33.958Z,23.10
2023-05-11T16:55:36.877Z,23.30
2023-05-11T16:57:41.339Z,23.50
2023-05-11T16:59:44.397Z,23.80
2023-05-11T17:01:49.324Z,23.90
2023-05-11T17:03:54.473Z,23.90
2023-05-11T17:05:57.461Z,23.90
2023-05-11T17:08:00.363Z,23.80
2023-05-11T17:10:03.257Z,23.70
2023-05-11T17:12:08.375Z,23.70
2023-05-11T17:14:12.618Z,23.70
2023-05-11T17:16:17.363Z,23.80
2023-05-11T17:18:20.379Z,23.80
2023-05-11T17:20:23.726Z,23.90
2023-05-11T17:22:28.704Z,24.00
2023-05-11T17:24:33.826Z,23.90
2023-05-11T17:26:47.116Z,23.90
2023-05-11T17:28:51.356Z,24.10
2023-05-11T17:30:55.561Z,24.10
2023-05-11T17:32:58.623Z,24.20
2023-05-11T17:35:01.978Z,24.10
2023-05-11T17:37:05.060Z,24.20
2023-05-11T17:39:10.319Z,24.20
2023-05-11T17:41:21.299Z,24.50
2023-05-11T17:43:27.154Z,24.40
2023-05-11T17:45:30.171Z,24.40
2023-05-11T17:47:34.505Z,24.50
2023-05-11T17:49:42.450Z,24.60
2023-05-11T17:51:45.322Z,24.90
2023-05-11T17:53:49.666Z,24.90
2023-05-11T17:55:52.979Z,24.90
2023-05-11T17:57:55.918Z,24.80
2023-05-11T17:59:58.813Z,24.80
2023-05-11T18:02:07.436Z,24.80
2023-05-11T18:04:12.196Z,24.80
2023-05-11T18:06:17.126Z,24.80
2023-05-11T18:08:20.107Z,24.80
2023-05-11T18:10:23.416Z,24.80
2023-05-11T18:12:26.319Z,24.80
2023-05-11T18:14:29.612Z,25.10
2023-05-11T18:16:32.715Z,25.30
2023-05-11T18:18:36.090Z,25.30
2023-05-11T18:20:40.343Z,25.80
2023-05-11T18:22:43.347Z,25.30
2023-05-11T18:24:46.299Z,25.40
2023-05-11T18:26:49.598Z,25.30
2023-05-11T18:28:54.660Z,25.30
2023-05-11T18:30:57.778Z,25.30
2023-05-11T18:33:03.606Z,25.40
2023-05-11T18:35:07.169Z,25.60
2023-05-11T18:37:11.706Z,25.80
2023-05-11T18:39:17.646Z,25.90
2023-05-11T18:41:23.528Z,26.00
2023-05-11T18:43:26.589Z,26.00
2023-05-11T18:45:30.630Z,26.00
2023-05-11T18:47:34.825Z,26.00
2023-05-11T18:49:38.911Z,26.20
2023-05-11T18:51:44.632Z,26.00
2023-05-11T18:53:51.603Z,26.10
2023-05-11T18:55:57.997Z,26.20
2023-05-11T18:58:01.515Z,26.20
2023-05-11T19:00:05.704Z,26.30
2023-05-11T19:02:11.770Z,26.40
2023-05-11T19:04:20.275Z,26.50
2023-05-11T19:06:23.191Z,26.60
2023-05-11T19:08:26.392Z,26.60
2023-05-11T19:10:31.837Z,26.60
2023-05-11T19:12:34.802Z,26.70
2023-05-11T19:14:47.485Z,26.70
2023-05-11T19:16:50.814Z,26.70
2023-05-11T19:18:56.260Z,26.70
2023-05-11T19:20:59.201Z,26.70
2023-05-11T19:23:02.176Z,26.80
2023-05-11T19:25:06.158Z,26.80
2023-05-11T19:27:13.315Z,26.90
2023-05-11T19:29:20.901Z,27.10
2023-05-11T19:31:25.144Z,27.10
2023-05-11T19:33:30.101Z,27.10
2023-05-11T19:35:32.954Z,27.60
2023-05-11T19:37:39.571Z,27.20
2023-05-11T19:39:42.667Z,27.20
2023-05-11T19:41:48.382Z,27.50
2023-05-11T19:43:52.767Z,27.70
2023-05-11T19:45:55.742Z,27.90
2023-05-11T19:47:58.777Z,27.90
2023-05-11T19:50:01.751Z,28.20
2023-05-11T19:52:04.841Z,28.40
2023-05-11T19:54:09.600Z,28.80
2023-05-11T19:56:12.515Z,28.90
2023-05-11T19:58:15.495Z,29.10
2023-05-11T20:00:22.832Z,29.20
2023-05-11T20:02:28.851Z,29.70
2023-05-11T20:04:34.408Z,29.70
2023-05-11T20:06:44.469Z,29.90
2023-05-11T20:08:48.761Z,30.00
2023-05-11T20:10:53.410Z,30.10
2023-05-11T20:12:57.636Z,30.90
2023-05-11T20:15:03.442Z,30.60
2023-05-11T20:17:14.717Z,30.70
2023-05-11T20:19:17.947Z,31.80
2023-05-11T20:21:20.950Z,31.10
2023-05-11T20:23:23.978Z,31.30
2023-05-11T20:25:35.243Z,31.50
2023-05-11T20:27:38.141Z,32.30
2023-05-11T20:29:44.959Z,32.20
2023-05-11T20:31:49.154Z,32.20
2023-05-11T20:36:01.907Z,32.40
2023-05-11T20:38:04.924Z,32.20
2023-05-11T20:40:09.212Z,32.30
2023-05-11T20:42:18.720Z,32.50
2023-05-11T20:44:26.057Z,33.30
2023-05-11T20:46:31.506Z,32.90
2023-05-11T20:48:40.735Z,33.10
2023-05-11T20:50:51.837Z,33.30
2023-05-11T20:52:59.014Z,34.00
2023-05-11T20:55:01.945Z,33.80
2023-05-11T20:57:05.103Z,33.70
2023-05-11T21:01:32.614Z,34.70
2023-05-11T21:03:38.536Z,34.10
2023-05-11T21:05:44.321Z,34.30
2023-05-11T21:07:51.563Z,34.40
2023-05-11T21:09:54.550Z,34.70
2023-05-11T21:11:57.385Z,34.50
2023-05-11T21:14:00.720Z,34.70
2023-05-11T21:16:04.188Z,34.70
2023-05-11T21:18:07.643Z,34.70
2023-05-11T21:20:18.960Z,34.70
2023-05-11T21:22:22.266Z,35.10
2023-05-11T21:24:29.355Z,34.80
2023-05-11T21:26:32.690Z,35.30
2023-05-11T21:28:36.605Z,34.90
2023-05-11T21:30:41.505Z,35.50
2023-05-11T21:32:50.473Z,34.80
2023-05-11T21:34:53.505Z,34.80
2023-05-11T21:36:56.505Z,34.80
2023-05-11T21:38:59.499Z,34.80
2023-05-11T21:41:06.248Z,34.80
2023-05-11T21:43:13.955Z,34.90
2023-05-11T21:45:19.741Z,34.90
2023-05-11T21:47:23.618Z,35.10
2023-05-11T21:49:28.812Z,35.20
2023-05-11T21:51:40.398Z,35.50
2023-05-11T21:53:43.393Z,35.70
2023-05-11T21:55:48.148Z,35.80
2023-05-11T21:57:52.698Z,36.10
2023-05-11T22:00:00.067Z,36.30
2023-05-11T22:02:03.627Z,36.30
2023-05-11T22:04:07.030Z,36.30
2023-05-11T22:06:10.091Z,36.40
2023-05-11T22:08:16.145Z,36.40
2023-05-11T22:10:20.588Z,36.40
2023-05-11T22:12:23.742Z,36.50
2023-05-11T22:14:30.921Z,36.50
2023-05-11T22:16:34.013Z,37.00
2023-05-11T22:18:40.848Z,36.60
2023-05-11T22:20:43.793Z,36.70
2023-05-11T22:22:46.914Z,36.80
2023-05-11T22:24:50.180Z,36.70
2023-05-11T22:26:54.384Z,36.80
2023-05-11T22:28:58.531Z,36.80
2023-05-11T22:31:03.108Z,36.60
2023-05-11T22:33:06.427Z,36.90
2023-05-11T22:35:10.306Z,36.50
2023-05-11T22:37:13.379Z,36.60
2023-05-11T22:39:21.301Z,36.50
2023-05-11T22:41:24.219Z,36.40
2023-05-11T22:43:27.342Z,36.40
2023-05-11T22:45:30.431Z,36.30
2023-05-11T22:47:34.726Z,36.40
2023-05-11T22:49:37.571Z,36.40
2023-05-11T22:51:40.693Z,36.30
2023-05-11T22:53:46.102Z,36.30
2023-05-11T22:55:51.101Z,36.20
2023-05-11T22:57:54.047Z,36.30
2023-05-11T22:59:59.795Z,36.10
2023-05-11T23:02:04.409Z,36.30
2023-05-11T23:04:09.591Z,36.20
2023-05-11T23:06:12.517Z,36.30
2023-05-11T23:08:17.374Z,36.30
2023-05-11T23:10:26.663Z,36.30
2023-05-11T23:12:29.592Z,36.40
2023-05-11T23:14:34.677Z,36.40
2023-05-11T23:16:44.181Z,36.40
2023-05-11T23:18:47.401Z,36.50
2023-05-11T23:20:56.504Z,37.20
2023-05-11T23:22:59.459Z,37.20
2023-05-11T23:25:02.361Z,36.60
2023-05-11T23:27:05.642Z,36.70
2023-05-11T23:29:11.089Z,36.70
2023-05-11T23:31:14.142Z,36.80
2023-05-11T23:33:18.098Z,37.10
2023-05-11T23:35:20.952Z,36.80
2023-05-11T23:37:27.389Z,37.30
2023-05-11T23:39:30.271Z,37.90
2023-05-11T23:41:33.637Z,37.60
2023-05-11T23:43:37.179Z,37.70
2023-05-11T23:45:40.191Z,37.70
2023-05-11T23:47:47.293Z,37.70
2023-05-11T23:49:50.754Z,37.70
2023-05-11T23:51:53.997Z,37.80
2023-05-11T23:54:00.935Z,37.90
2023-05-11T23:56:04.011Z,38.10
2023-05-11T23:58:06.951Z,37.90
